sensor_id;sensor_type;location;lat;lon;timestamp;P1;durP1;ratioP1;P2;durP2;ratioP2
19519;SDS011;9904;52.246;20.898;2023-03-03T00:01:37;175.97;;;57.07;;
19519;SDS011;9904;52.246;20.898;2023-03-03T00:04:04;180.73;;;58.87;;
19519;SDS011;9904;52.246;20.898;2023-03-03T00:06:31;188.23;;;58.87;;
19519;SDS011;9904;52.246;20.898;2023-03-03T00:08:57;187.00;;;59.73;;
19519;SDS011;9904;52.246;20.898;2023-03-03T00:11:24;169.93;;;56.73;;
19519;SDS011;9904;52.246;20.898;2023-03-03T00:13:52;180.87;;;56.07;;
19519;SDS011;9904;52.246;20.898;2023-03-03T00:16:36;188.33;;;58.97;;
19519;SDS011;9904;52.246;20.898;2023-03-03T00:19:11;177.97;;;56.93;;
19519;SDS011;9904;52.246;20.898;2023-03-03T00:21:40;187.33;;;57.20;;
19519;SDS011;9904;52.246;20.898;2023-03-03T00:24:18;166.13;;;56.93;;
19519;SDS011;9904;52.246;20.898;2023-03-03T00:26:52;165.53;;;56.70;;
19519;SDS011;9904;52.246;20.898;2023-03-03T00:34:54;176.07;;;55.40;;
19519;SDS011;9904;52.246;20.898;2023-03-03T00:37:26;171.77;;;55.53;;
19519;SDS011;9904;52.246;20.898;2023-03-03T00:40:38;179.53;;;57.47;;
19519;SDS011;9904;52.246;20.898;2023-03-03T00:42:50;180.73;;;58.37;;
19519;SDS011;9904;52.246;20.898;2023-03-03T00:45:31;164.70;;;55.37;;
19519;SDS011;9904;52.246;20.898;2023-03-03T00:48:08;167.63;;;56.70;;
19519;SDS011;9904;52.246;20.898;2023-03-03T00:50:42;177.57;;;57.47;;
19519;SDS011;9904;52.246;20.898;2023-03-03T00:53:16;184.27;;;56.70;;
19519;SDS011;9904;52.246;20.898;2023-03-03T00:55:44;171.27;;;58.70;;
19519;SDS011;9904;52.246;20.898;2023-03-03T00:58:12;171.30;;;56.90;;
19519;SDS011;9904;52.246;20.898;2023-03-03T01:00:39;168.17;;;56.37;;
19519;SDS011;9904;52.246;20.898;2023-03-03T01:03:11;175.50;;;56.30;;
19519;SDS011;9904;52.246;20.898;2023-03-03T01:05:47;166.80;;;54.47;;
19519;SDS011;9904;52.246;20.898;2023-03-03T01:08:18;167.03;;;55.30;;
19519;SDS011;9904;52.246;20.898;2023-03-03T01:10:53;175.77;;;55.67;;
19519;SDS011;9904;52.246;20.898;2023-03-03T01:13:21;156.83;;;53.17;;
19519;SDS011;9904;52.246;20.898;2023-03-03T01:15:49;166.13;;;54.27;;
19519;SDS011;9904;52.246;20.898;2023-03-03T01:18:17;160.77;;;53.83;;
19519;SDS011;9904;52.246;20.898;2023-03-03T01:20:44;170.87;;;53.93;;
19519;SDS011;9904;52.246;20.898;2023-03-03T01:23:10;175.87;;;54.57;;
19519;SDS011;9904;52.246;20.898;2023-03-03T01:25:37;153.60;;;52.47;;
19519;SDS011;9904;52.246;20.898;2023-03-03T01:28:04;167.90;;;54.93;;
19519;SDS011;9904;52.246;20.898;2023-03-03T01:30:31;159.57;;;52.57;;
19519;SDS011;9904;52.246;20.898;2023-03-03T01:32:57;149.93;;;51.03;;
19519;SDS011;9904;52.246;20.898;2023-03-03T01:35:24;164.97;;;54.83;;
19519;SDS011;9904;52.246;20.898;2023-03-03T01:37:51;158.93;;;51.40;;
19519;SDS011;9904;52.246;20.898;2023-03-03T01:40:19;142.67;;;50.57;;
19519;SDS011;9904;52.246;20.898;2023-03-03T01:42:51;146.13;;;47.97;;
19519;SDS011;9904;52.246;20.898;2023-03-03T01:45:20;152.57;;;49.83;;
19519;SDS011;9904;52.246;20.898;2023-03-03T01:47:53;148.03;;;49.53;;
19519;SDS011;9904;52.246;20.898;2023-03-03T01:53:17;150.10;;;50.53;;
19519;SDS011;9904;52.246;20.898;2023-03-03T01:55:45;146.53;;;49.93;;
19519;SDS011;9904;52.246;20.898;2023-03-03T01:58:15;144.87;;;48.63;;
19519;SDS011;9904;52.246;20.898;2023-03-03T02:00:45;147.37;;;49.20;;
19519;SDS011;9904;52.246;20.898;2023-03-03T02:03:17;139.93;;;48.77;;
19519;SDS011;9904;52.246;20.898;2023-03-03T02:05:46;145.90;;;49.07;;
19519;SDS011;9904;52.246;20.898;2023-03-03T02:08:13;145.60;;;49.23;;
19519;SDS011;9904;52.246;20.898;2023-03-03T02:10:43;141.83;;;49.00;;
19519;SDS011;9904;52.246;20.898;2023-03-03T02:13:11;149.17;;;50.37;;
19519;SDS011;9904;52.246;20.898;2023-03-03T02:15:39;135.40;;;45.53;;
19519;SDS011;9904;52.246;20.898;2023-03-03T02:18:06;152.97;;;48.13;;
19519;SDS011;9904;52.246;20.898;2023-03-03T02:20:45;138.67;;;47.87;;
19519;SDS011;9904;52.246;20.898;2023-03-03T02:23:29;142.07;;;47.70;;
19519;SDS011;9904;52.246;20.898;2023-03-03T02:26:11;144.40;;;48.40;;
19519;SDS011;9904;52.246;20.898;2023-03-03T02:28:40;144.47;;;48.33;;
19519;SDS011;9904;52.246;20.898;2023-03-03T02:31:09;150.33;;;50.87;;
19519;SDS011;9904;52.246;20.898;2023-03-03T02:33:39;152.20;;;48.63;;
19519;SDS011;9904;52.246;20.898;2023-03-03T02:36:13;146.50;;;49.20;;
19519;SDS011;9904;52.246;20.898;2023-03-03T02:41:17;139.50;;;46.73;;
19519;SDS011;9904;52.246;20.898;2023-03-03T02:44:26;154.60;;;48.97;;
19519;SDS011;9904;52.246;20.898;2023-03-03T02:46:46;155.17;;;49.40;;
19519;SDS011;9904;52.246;20.898;2023-03-03T02:49:16;146.23;;;48.33;;
19519;SDS011;9904;52.246;20.898;2023-03-03T02:51:45;144.67;;;47.37;;
19519;SDS011;9904;52.246;20.898;2023-03-03T02:54:12;136.70;;;45.90;;
19519;SDS011;9904;52.246;20.898;2023-03-03T02:56:40;137.57;;;46.33;;
19519;SDS011;9904;52.246;20.898;2023-03-03T02:59:07;143.60;;;47.83;;
19519;SDS011;9904;52.246;20.898;2023-03-03T03:01:34;142.00;;;46.10;;
19519;SDS011;9904;52.246;20.898;2023-03-03T03:04:07;135.97;;;45.73;;
19519;SDS011;9904;52.246;20.898;2023-03-03T03:06:45;154.87;;;45.93;;
19519;SDS011;9904;52.246;20.898;2023-03-03T03:09:12;161.70;;;47.50;;
19519;SDS011;9904;52.246;20.898;2023-03-03T03:11:40;153.83;;;47.63;;
19519;SDS011;9904;52.246;20.898;2023-03-03T03:14:07;160.40;;;49.00;;
19519;SDS011;9904;52.246;20.898;2023-03-03T03:16:35;154.70;;;49.40;;
19519;SDS011;9904;52.246;20.898;2023-03-03T03:19:02;161.93;;;48.77;;
19519;SDS011;9904;52.246;20.898;2023-03-03T03:21:29;163.60;;;49.60;;
19519;SDS011;9904;52.246;20.898;2023-03-03T03:23:56;163.03;;;51.70;;
19519;SDS011;9904;52.246;20.898;2023-03-03T03:26:23;176.80;;;52.37;;
19519;SDS011;9904;52.246;20.898;2023-03-03T03:28:50;169.67;;;52.73;;
19519;SDS011;9904;52.246;20.898;2023-03-03T03:31:17;180.93;;;54.03;;
19519;SDS011;9904;52.246;20.898;2023-03-03T03:33:44;166.20;;;52.27;;
19519;SDS011;9904;52.246;20.898;2023-03-03T03:36:11;161.30;;;51.07;;
19519;SDS011;9904;52.246;20.898;2023-03-03T03:38:37;169.90;;;51.93;;
19519;SDS011;9904;52.246;20.898;2023-03-03T03:41:04;164.53;;;52.60;;
19519;SDS011;9904;52.246;20.898;2023-03-03T03:43:31;165.70;;;52.67;;
19519;SDS011;9904;52.246;20.898;2023-03-03T03:45:58;168.40;;;53.93;;
19519;SDS011;9904;52.246;20.898;2023-03-03T03:48:25;170.23;;;52.60;;
19519;SDS011;9904;52.246;20.898;2023-03-03T03:50:51;161.80;;;53.30;;
19519;SDS011;9904;52.246;20.898;2023-03-03T03:53:18;167.27;;;52.43;;
19519;SDS011;9904;52.246;20.898;2023-03-03T03:55:45;167.13;;;51.67;;
19519;SDS011;9904;52.246;20.898;2023-03-03T03:58:12;164.10;;;51.00;;
19519;SDS011;9904;52.246;20.898;2023-03-03T04:00:40;159.67;;;51.07;;
19519;SDS011;9904;52.246;20.898;2023-03-03T04:03:07;163.43;;;51.17;;
19519;SDS011;9904;52.246;20.898;2023-03-03T04:05:34;177.20;;;50.87;;
19519;SDS011;9904;52.246;20.898;2023-03-03T04:08:01;159.23;;;52.07;;
19519;SDS011;9904;52.246;20.898;2023-03-03T04:10:28;172.23;;;51.87;;
19519;SDS011;9904;52.246;20.898;2023-03-03T04:12:55;171.67;;;51.27;;
19519;SDS011;9904;52.246;20.898;2023-03-03T04:15:22;162.80;;;50.87;;
19519;SDS011;9904;52.246;20.898;2023-03-03T04:17:49;169.60;;;52.30;;
19519;SDS011;9904;52.246;20.898;2023-03-03T04:20:16;176.80;;;52.00;;
19519;SDS011;9904;52.246;20.898;2023-03-03T04:22:42;177.50;;;56.13;;
19519;SDS011;9904;52.246;20.898;2023-03-03T04:25:11;179.13;;;53.67;;
19519;SDS011;9904;52.246;20.898;2023-03-03T04:27:41;193.27;;;56.50;;
19519;SDS011;9904;52.246;20.898;2023-03-03T04:30:08;176.57;;;54.87;;
19519;SDS011;9904;52.246;20.898;2023-03-03T04:32:35;187.13;;;56.37;;
19519;SDS011;9904;52.246;20.898;2023-03-03T04:35:02;190.67;;;56.83;;
19519;SDS011;9904;52.246;20.898;2023-03-03T04:37:33;190.43;;;55.63;;
19519;SDS011;9904;52.246;20.898;2023-03-03T04:40:00;199.43;;;59.93;;
19519;SDS011;9904;52.246;20.898;2023-03-03T04:42:27;187.93;;;56.77;;
19519;SDS011;9904;52.246;20.898;2023-03-03T04:44:54;181.23;;;56.93;;
19519;SDS011;9904;52.246;20.898;2023-03-03T04:47:20;200.27;;;56.93;;
19519;SDS011;9904;52.246;20.898;2023-03-03T04:49:47;198.27;;;58.50;;
19519;SDS011;9904;52.246;20.898;2023-03-03T04:52:13;196.23;;;58.73;;
19519;SDS011;9904;52.246;20.898;2023-03-03T04:54:40;204.03;;;59.47;;
19519;SDS011;9904;52.246;20.898;2023-03-03T04:57:07;203.60;;;59.03;;
19519;SDS011;9904;52.246;20.898;2023-03-03T04:59:34;198.03;;;59.10;;
19519;SDS011;9904;52.246;20.898;2023-03-03T05:02:01;181.80;;;57.67;;
19519;SDS011;9904;52.246;20.898;2023-03-03T05:04:30;204.63;;;60.00;;
19519;SDS011;9904;52.246;20.898;2023-03-03T05:06:58;205.50;;;58.13;;
19519;SDS011;9904;52.246;20.898;2023-03-03T05:09:24;199.67;;;59.60;;
19519;SDS011;9904;52.246;20.898;2023-03-03T05:11:51;202.87;;;59.53;;
19519;SDS011;9904;52.246;20.898;2023-03-03T05:14:17;210.03;;;62.00;;
19519;SDS011;9904;52.246;20.898;2023-03-03T05:16:44;198.43;;;60.33;;
19519;SDS011;9904;52.246;20.898;2023-03-03T05:19:11;193.67;;;58.40;;
19519;SDS011;9904;52.246;20.898;2023-03-03T05:21:38;210.97;;;60.50;;
19519;SDS011;9904;52.246;20.898;2023-03-03T05:24:08;215.53;;;62.50;;
19519;SDS011;9904;52.246;20.898;2023-03-03T05:26:36;223.87;;;63.90;;
19519;SDS011;9904;52.246;20.898;2023-03-03T05:29:03;214.57;;;62.00;;
19519;SDS011;9904;52.246;20.898;2023-03-03T05:31:30;237.63;;;67.40;;
19519;SDS011;9904;52.246;20.898;2023-03-03T05:33:56;233.80;;;64.57;;
19519;SDS011;9904;52.246;20.898;2023-03-03T05:36:23;249.90;;;66.47;;
19519;SDS011;9904;52.246;20.898;2023-03-03T05:38:50;243.53;;;66.23;;
19519;SDS011;9904;52.246;20.898;2023-03-03T05:41:17;251.67;;;67.23;;
19519;SDS011;9904;52.246;20.898;2023-03-03T05:43:43;239.27;;;65.33;;
19519;SDS011;9904;52.246;20.898;2023-03-03T05:46:10;271.30;;;68.93;;
19519;SDS011;9904;52.246;20.898;2023-03-03T05:48:37;257.97;;;69.30;;
19519;SDS011;9904;52.246;20.898;2023-03-03T05:51:04;272.87;;;69.30;;
19519;SDS011;9904;52.246;20.898;2023-03-03T05:53:30;289.00;;;76.60;;
19519;SDS011;9904;52.246;20.898;2023-03-03T05:55:57;302.17;;;70.93;;
19519;SDS011;9904;52.246;20.898;2023-03-03T05:58:23;274.23;;;70.47;;
19519;SDS011;9904;52.246;20.898;2023-03-03T06:00:50;298.87;;;70.10;;
19519;SDS011;9904;52.246;20.898;2023-03-03T06:03:17;255.50;;;68.20;;
19519;SDS011;9904;52.246;20.898;2023-03-03T06:05:44;284.10;;;67.90;;
19519;SDS011;9904;52.246;20.898;2023-03-03T06:08:10;299.40;;;67.17;;
19519;SDS011;9904;52.246;20.898;2023-03-03T06:10:37;368.20;;;70.87;;
19519;SDS011;9904;52.246;20.898;2023-03-03T06:13:03;369.00;;;67.03;;
19519;SDS011;9904;52.246;20.898;2023-03-03T06:15:30;286.40;;;65.47;;
19519;SDS011;9904;52.246;20.898;2023-03-03T06:17:57;349.23;;;72.30;;
19519;SDS011;9904;52.246;20.898;2023-03-03T06:20:23;312.50;;;69.00;;
19519;SDS011;9904;52.246;20.898;2023-03-03T06:22:50;368.80;;;73.53;;
19519;SDS011;9904;52.246;20.898;2023-03-03T06:25:17;283.07;;;66.90;;
19519;SDS011;9904;52.246;20.898;2023-03-03T06:27:43;315.57;;;67.30;;
19519;SDS011;9904;52.246;20.898;2023-03-03T06:30:10;308.03;;;67.90;;
19519;SDS011;9904;52.246;20.898;2023-03-03T06:32:38;316.07;;;63.87;;
19519;SDS011;9904;52.246;20.898;2023-03-03T06:35:05;274.53;;;59.73;;
19519;SDS011;9904;52.246;20.898;2023-03-03T06:37:32;301.67;;;62.13;;
19519;SDS011;9904;52.246;20.898;2023-03-03T06:39:58;261.40;;;56.40;;
19519;SDS011;9904;52.246;20.898;2023-03-03T06:42:25;299.23;;;58.43;;
19519;SDS011;9904;52.246;20.898;2023-03-03T06:44:52;254.70;;;53.63;;
19519;SDS011;9904;52.246;20.898;2023-03-03T06:47:19;224.67;;;54.07;;
19519;SDS011;9904;52.246;20.898;2023-03-03T06:49:45;247.90;;;53.37;;
19519;SDS011;9904;52.246;20.898;2023-03-03T06:52:22;267.93;;;53.03;;
19519;SDS011;9904;52.246;20.898;2023-03-03T06:54:52;253.43;;;51.87;;
19519;SDS011;9904;52.246;20.898;2023-03-03T06:57:27;244.33;;;52.90;;
19519;SDS011;9904;52.246;20.898;2023-03-03T06:59:56;237.37;;;47.63;;
19519;SDS011;9904;52.246;20.898;2023-03-03T07:02:26;210.10;;;47.73;;
19519;SDS011;9904;52.246;20.898;2023-03-03T07:04:54;229.07;;;48.97;;
19519;SDS011;9904;52.246;20.898;2023-03-03T07:07:22;255.43;;;49.73;;
19519;SDS011;9904;52.246;20.898;2023-03-03T07:09:54;233.93;;;50.07;;
19519;SDS011;9904;52.246;20.898;2023-03-03T07:12:22;230.17;;;47.13;;
19519;SDS011;9904;52.246;20.898;2023-03-03T07:15:14;201.83;;;49.47;;
19519;SDS011;9904;52.246;20.898;2023-03-03T07:17:44;247.10;;;49.17;;
19519;SDS011;9904;52.246;20.898;2023-03-03T07:20:20;234.90;;;49.03;;
19519;SDS011;9904;52.246;20.898;2023-03-03T07:22:49;215.17;;;44.17;;
19519;SDS011;9904;52.246;20.898;2023-03-03T07:25:29;227.13;;;47.47;;
19519;SDS011;9904;52.246;20.898;2023-03-03T07:28:09;231.80;;;45.00;;
19519;SDS011;9904;52.246;20.898;2023-03-03T07:30:46;227.47;;;46.27;;
19519;SDS011;9904;52.246;20.898;2023-03-03T07:33:22;268.33;;;45.70;;
19519;SDS011;9904;52.246;20.898;2023-03-03T07:35:52;233.47;;;45.77;;
19519;SDS011;9904;52.246;20.898;2023-03-03T07:41:14;246.93;;;47.57;;
19519;SDS011;9904;52.246;20.898;2023-03-03T07:43:49;239.97;;;46.47;;
19519;SDS011;9904;52.246;20.898;2023-03-03T07:49:33;228.47;;;46.20;;
19519;SDS011;9904;52.246;20.898;2023-03-03T07:54:55;215.00;;;44.60;;
19519;SDS011;9904;52.246;20.898;2023-03-03T07:57:24;220.80;;;47.10;;
19519;SDS011;9904;52.246;20.898;2023-03-03T07:59:59;224.97;;;46.57;;
19519;SDS011;9904;52.246;20.898;2023-03-03T08:05:29;184.47;;;41.43;;
19519;SDS011;9904;52.246;20.898;2023-03-03T08:10:56;198.37;;;42.27;;
19519;SDS011;9904;52.246;20.898;2023-03-03T08:13:24;189.13;;;43.97;;
19519;SDS011;9904;52.246;20.898;2023-03-03T08:18:37;174.83;;;40.47;;
19519;SDS011;9904;52.246;20.898;2023-03-03T08:23:36;158.43;;;37.83;;
19519;SDS011;9904;52.246;20.898;2023-03-03T08:26:03;165.70;;;38.20;;
19519;SDS011;9904;52.246;20.898;2023-03-03T08:28:29;162.20;;;39.43;;
19519;SDS011;9904;52.246;20.898;2023-03-03T08:30:56;137.97;;;35.67;;
19519;SDS011;9904;52.246;20.898;2023-03-03T08:33:42;151.40;;;38.40;;
19519;SDS011;9904;52.246;20.898;2023-03-03T08:36:09;165.53;;;39.10;;
19519;SDS011;9904;52.246;20.898;2023-03-03T08:38:36;149.53;;;37.60;;
19519;SDS011;9904;52.246;20.898;2023-03-03T08:41:03;169.83;;;39.77;;
19519;SDS011;9904;52.246;20.898;2023-03-03T08:43:30;153.30;;;38.53;;
19519;SDS011;9904;52.246;20.898;2023-03-03T08:45:58;151.53;;;38.53;;
19519;SDS011;9904;52.246;20.898;2023-03-03T08:48:27;151.37;;;38.83;;
19519;SDS011;9904;52.246;20.898;2023-03-03T08:50:54;151.27;;;39.27;;
19519;SDS011;9904;52.246;20.898;2023-03-03T08:53:21;155.73;;;39.47;;
19519;SDS011;9904;52.246;20.898;2023-03-03T08:55:49;144.40;;;38.67;;
19519;SDS011;9904;52.246;20.898;2023-03-03T08:58:17;144.13;;;37.80;;
19519;SDS011;9904;52.246;20.898;2023-03-03T09:00:45;140.07;;;39.77;;
19519;SDS011;9904;52.246;20.898;2023-03-03T09:03:15;151.40;;;37.80;;
19519;SDS011;9904;52.246;20.898;2023-03-03T09:05:42;145.07;;;40.13;;
19519;SDS011;9904;52.246;20.898;2023-03-03T09:08:10;140.87;;;38.57;;
19519;SDS011;9904;52.246;20.898;2023-03-03T09:10:37;138.60;;;37.17;;
19519;SDS011;9904;52.246;20.898;2023-03-03T09:13:06;133.03;;;37.60;;
19519;SDS011;9904;52.246;20.898;2023-03-03T09:15:37;124.90;;;34.13;;
19519;SDS011;9904;52.246;20.898;2023-03-03T09:20:47;99.83;;;30.37;;
19519;SDS011;9904;52.246;20.898;2023-03-03T09:23:34;110.37;;;29.87;;
19519;SDS011;9904;52.246;20.898;2023-03-03T09:26:14;85.80;;;26.80;;
19519;SDS011;9904;52.246;20.898;2023-03-03T09:28:47;84.40;;;26.47;;
19519;SDS011;9904;52.246;20.898;2023-03-03T09:31:23;94.20;;;29.23;;
19519;SDS011;9904;52.246;20.898;2023-03-03T09:33:51;90.20;;;27.97;;
19519;SDS011;9904;52.246;20.898;2023-03-03T09:38:56;94.90;;;27.93;;
19519;SDS011;9904;52.246;20.898;2023-03-03T09:52:23;74.37;;;25.83;;
19519;SDS011;9904;52.246;20.898;2023-03-03T09:57:55;94.00;;;29.07;;
19519;SDS011;9904;52.246;20.898;2023-03-03T10:03:44;94.13;;;28.10;;
19519;SDS011;9904;52.246;20.898;2023-03-03T10:11:47;90.33;;;29.10;;
19519;SDS011;9904;52.246;20.898;2023-03-03T10:19:35;97.23;;;28.37;;
19519;SDS011;9904;52.246;20.898;2023-03-03T10:25:24;95.47;;;29.03;;
19519;SDS011;9904;52.246;20.898;2023-03-03T10:28:00;91.10;;;28.27;;
19519;SDS011;9904;52.246;20.898;2023-03-03T10:36:17;72.90;;;25.07;;
19519;SDS011;9904;52.246;20.898;2023-03-03T10:41:42;72.57;;;24.17;;
19519;SDS011;9904;52.246;20.898;2023-03-03T10:50:09;74.27;;;24.67;;
19519;SDS011;9904;52.246;20.898;2023-03-03T10:52:43;68.83;;;23.33;;
19519;SDS011;9904;52.246;20.898;2023-03-03T10:57:47;66.33;;;23.23;;
19519;SDS011;9904;52.246;20.898;2023-03-03T11:00:30;69.80;;;24.17;;
19519;SDS011;9904;52.246;20.898;2023-03-03T11:05:47;61.10;;;21.37;;
19519;SDS011;9904;52.246;20.898;2023-03-03T11:14:23;59.07;;;23.30;;
19519;SDS011;9904;52.246;20.898;2023-03-03T11:17:19;63.13;;;22.87;;
19519;SDS011;9904;52.246;20.898;2023-03-03T11:19:57;63.83;;;23.17;;
19519;SDS011;9904;52.246;20.898;2023-03-03T11:22:37;70.17;;;23.07;;
19519;SDS011;9904;52.246;20.898;2023-03-03T11:28:24;61.57;;;23.70;;
19519;SDS011;9904;52.246;20.898;2023-03-03T11:33:49;64.67;;;26.07;;
19519;SDS011;9904;52.246;20.898;2023-03-03T11:37:25;66.83;;;25.53;;
19519;SDS011;9904;52.246;20.898;2023-03-03T11:39:29;65.00;;;26.07;;
19519;SDS011;9904;52.246;20.898;2023-03-03T11:42:20;77.77;;;29.87;;
19519;SDS011;9904;52.246;20.898;2023-03-03T11:45:05;79.53;;;29.87;;
19519;SDS011;9904;52.246;20.898;2023-03-03T11:47:54;80.27;;;30.13;;
19519;SDS011;9904;52.246;20.898;2023-03-03T11:50:30;67.53;;;25.63;;
19519;SDS011;9904;52.246;20.898;2023-03-03T12:01:56;62.93;;;21.63;;
19519;SDS011;9904;52.246;20.898;2023-03-03T12:04:35;60.90;;;21.37;;
19519;SDS011;9904;52.246;20.898;2023-03-03T12:15:54;54.07;;;20.93;;
19519;SDS011;9904;52.246;20.898;2023-03-03T12:26:06;63.67;;;23.30;;
19519;SDS011;9904;52.246;20.898;2023-03-03T12:28:40;69.77;;;22.13;;
19519;SDS011;9904;52.246;20.898;2023-03-03T12:31:19;59.30;;;21.27;;
19519;SDS011;9904;52.246;20.898;2023-03-03T12:47:50;61.33;;;20.50;;
19519;SDS011;9904;52.246;20.898;2023-03-03T12:56:08;60.20;;;21.37;;
19519;SDS011;9904;52.246;20.898;2023-03-03T13:04:11;64.53;;;22.17;;
19519;SDS011;9904;52.246;20.898;2023-03-03T13:06:55;54.93;;;20.20;;
19519;SDS011;9904;52.246;20.898;2023-03-03T13:17:44;77.03;;;26.97;;
19519;SDS011;9904;52.246;20.898;2023-03-03T13:20:26;71.40;;;25.07;;
19519;SDS011;9904;52.246;20.898;2023-03-03T13:23:45;72.40;;;22.97;;
19519;SDS011;9904;52.246;20.898;2023-03-03T13:29:14;72.40;;;23.90;;
19519;SDS011;9904;52.246;20.898;2023-03-03T13:35:00;82.43;;;27.10;;
19519;SDS011;9904;52.246;20.898;2023-03-03T13:37:42;81.23;;;25.87;;
19519;SDS011;9904;52.246;20.898;2023-03-03T13:40:18;70.43;;;25.63;;
19519;SDS011;9904;52.246;20.898;2023-03-03T13:42:49;73.57;;;24.33;;
19519;SDS011;9904;52.246;20.898;2023-03-03T13:45:22;73.17;;;23.47;;
19519;SDS011;9904;52.246;20.898;2023-03-03T13:48:00;70.30;;;21.97;;
19519;SDS011;9904;52.246;20.898;2023-03-03T13:50:55;66.13;;;22.20;;
19519;SDS011;9904;52.246;20.898;2023-03-03T14:05:01;59.80;;;21.90;;
19519;SDS011;9904;52.246;20.898;2023-03-03T14:10:05;60.83;;;19.73;;
19519;SDS011;9904;52.246;20.898;2023-03-03T14:12:46;56.10;;;19.93;;
19519;SDS011;9904;52.246;20.898;2023-03-03T14:15:22;56.70;;;19.43;;
19519;SDS011;9904;52.246;20.898;2023-03-03T14:20:28;58.23;;;19.90;;
19519;SDS011;9904;52.246;20.898;2023-03-03T14:22:57;55.70;;;20.27;;
19519;SDS011;9904;52.246;20.898;2023-03-03T14:25:26;60.90;;;20.90;;
19519;SDS011;9904;52.246;20.898;2023-03-03T14:28:18;62.43;;;19.50;;
19519;SDS011;9904;52.246;20.898;2023-03-03T14:30:46;64.83;;;19.87;;
19519;SDS011;9904;52.246;20.898;2023-03-03T14:33:15;71.43;;;19.70;;
19519;SDS011;9904;52.246;20.898;2023-03-03T14:41:02;58.00;;;19.93;;
19519;SDS011;9904;52.246;20.898;2023-03-03T14:43:41;57.53;;;19.97;;
19519;SDS011;9904;52.246;20.898;2023-03-03T14:49:05;66.60;;;19.77;;
19519;SDS011;9904;52.246;20.898;2023-03-03T14:51:41;54.40;;;18.27;;
19519;SDS011;9904;52.246;20.898;2023-03-03T14:54:18;50.67;;;17.20;;
19519;SDS011;9904;52.246;20.898;2023-03-03T14:59:25;50.50;;;17.87;;
19519;SDS011;9904;52.246;20.898;2023-03-03T15:02:09;52.13;;;18.17;;
19519;SDS011;9904;52.246;20.898;2023-03-03T15:04:38;51.37;;;17.43;;
19519;SDS011;9904;52.246;20.898;2023-03-03T15:10:07;52.23;;;16.20;;
19519;SDS011;9904;52.246;20.898;2023-03-03T15:12:35;44.80;;;16.97;;
19519;SDS011;9904;52.246;20.898;2023-03-03T15:20:31;47.73;;;16.57;;
19519;SDS011;9904;52.246;20.898;2023-03-03T15:36:58;56.37;;;20.63;;
19519;SDS011;9904;52.246;20.898;2023-03-03T15:42:06;47.20;;;18.20;;
19519;SDS011;9904;52.246;20.898;2023-03-03T15:44:55;44.90;;;16.20;;
19519;SDS011;9904;52.246;20.898;2023-03-03T15:50:23;49.20;;;17.80;;
19519;SDS011;9904;52.246;20.898;2023-03-03T15:58:43;50.57;;;17.60;;
19519;SDS011;9904;52.246;20.898;2023-03-03T16:01:28;48.23;;;17.43;;
19519;SDS011;9904;52.246;20.898;2023-03-03T16:04:10;48.93;;;17.50;;
19519;SDS011;9904;52.246;20.898;2023-03-03T16:09:47;57.63;;;20.03;;
19519;SDS011;9904;52.246;20.898;2023-03-03T16:12:34;51.60;;;18.77;;
19519;SDS011;9904;52.246;20.898;2023-03-03T16:15:16;53.83;;;18.90;;
19519;SDS011;9904;52.246;20.898;2023-03-03T16:28:48;72.63;;;22.77;;
19519;SDS011;9904;52.246;20.898;2023-03-03T16:32:20;67.17;;;20.83;;
19519;SDS011;9904;52.246;20.898;2023-03-03T16:45:38;62.27;;;21.90;;
19519;SDS011;9904;52.246;20.898;2023-03-03T16:51:01;62.27;;;21.33;;
19519;SDS011;9904;52.246;20.898;2023-03-03T16:53:40;68.60;;;23.67;;
19519;SDS011;9904;52.246;20.898;2023-03-03T16:58:58;56.23;;;20.30;;
19519;SDS011;9904;52.246;20.898;2023-03-03T17:01:46;57.20;;;21.33;;
19519;SDS011;9904;52.246;20.898;2023-03-03T17:07:33;60.93;;;21.63;;
19519;SDS011;9904;52.246;20.898;2023-03-03T17:15:31;60.57;;;21.80;;
19519;SDS011;9904;52.246;20.898;2023-03-03T17:46:12;57.53;;;20.70;;
19519;SDS011;9904;52.246;20.898;2023-03-03T17:51:40;57.07;;;20.80;;
19519;SDS011;9904;52.246;20.898;2023-03-03T17:54:27;52.70;;;20.23;;
